Time;durP1;ratioP1;P1;durP2;ratioP2;P2;SDS_P1;SDS_P2;PMS_P1;PMS_P2;Temp;Humidity;BMP_temperature;BMP_pressure;BME280_temperature;BME280_humidity;BME280_pressure;Samples;Min_cycle;Max_cycle;Signal;HPM_P1;HPM_P2
2021/10/29 00:01:00;;;;;;;30.08;18.35;;;10.50;99.90;;;;;;5041053;28;20038;-54
2021/10/29 00:03:26;;;;;;;30.25;18.73;;;10.50;99.90;;;;;;5036570;28;20037;-55
2021/10/29 00:05:52;;;;;;;27.65;18.95;;;10.50;99.90;;;;;;5004805;28;20041;-55
2021/10/29 00:08:18;;;;;;;31.73;18.88;;;10.50;99.90;;;;;;5034343;28;20429;-54
2021/10/29 00:10:44;;;;;;;32.05;18.33;;;10.50;99.90;;;;;;5030082;28;20499;-54
2021/10/29 00:13:09;;;;;;;30.20;19.00;;;10.50;99.90;;;;;;5030492;28;20118;-54
2021/10/29 00:15:35;;;;;;;29.42;18.05;;;10.40;99.90;;;;;;5027078;28;20112;-54
2021/10/29 00:18:01;;;;;;;30.20;18.85;;;10.40;99.90;;;;;;5027351;28;20033;-54
2021/10/29 00:20:27;;;;;;;32.55;18.92;;;10.30;99.90;;;;;;5031439;28;20080;-54
2021/10/29 00:22:52;;;;;;;30.92;18.50;;;10.30;99.90;;;;;;5025535;28;20042;-54
2021/10/29 00:25:18;;;;;;;30.65;19.80;;;10.30;99.90;;;;;;5025880;28;20042;-54
2021/10/29 00:27:44;;;;;;;30.67;18.25;;;10.30;99.90;;;;;;5030134;28;20045;-54
2021/10/29 00:30:11;;;;;;;27.88;18.45;;;10.30;99.90;;;;;;5028214;28;20071;-53
2021/10/29 00:32:36;;;;;;;30.90;19.15;;;10.30;99.90;;;;;;5039001;28;20484;-53
2021/10/29 00:35:02;;;;;;;27.90;17.95;;;10.30;99.90;;;;;;5014196;28;20052;-54
2021/10/29 00:37:30;;;;;;;29.27;17.92;;;10.30;99.90;;;;;;5407721;22;20047;-85
2021/10/29 00:42:31;;;;;;;30.00;18.90;;;10.30;99.90;;;;;;5671133;22;20057;-85
2021/10/29 00:44:57;;;;;;;29.27;18.55;;;10.30;99.90;;;;;;5010105;28;20399;-84
2021/10/29 00:47:23;;;;;;;31.20;18.23;;;10.20;99.90;;;;;;5013263;28;20092;-84
2021/10/29 00:49:48;;;;;;;31.23;18.13;;;10.20;99.90;;;;;;5012526;28;20038;-84
2021/10/29 00:52:14;;;;;;;28.58;17.60;;;10.30;99.90;;;;;;5032911;28;20128;-85
2021/10/29 00:54:40;;;;;;;31.88;18.48;;;10.20;99.90;;;;;;4987424;28;20068;-84
2021/10/29 00:57:06;;;;;;;29.52;17.55;;;10.20;99.90;;;;;;4997822;28;20037;-84
2021/10/29 00:59:31;;;;;;;29.50;18.40;;;10.30;99.90;;;;;;4988437;28;20079;-84
2021/10/29 01:01:58;;;;;;;32.97;18.65;;;10.30;99.90;;;;;;5026152;28;20037;-84
2021/10/29 01:04:25;;;;;;;28.13;17.60;;;10.20;99.90;;;;;;5015239;28;20123;-85
2021/10/29 01:06:51;;;;;;;29.17;17.40;;;10.20;99.90;;;;;;4987250;28;20045;-84
2021/10/29 01:09:16;;;;;;;29.13;18.60;;;10.30;99.80;;;;;;4991957;28;20411;-84
2021/10/29 01:11:43;;;;;;;30.65;17.90;;;10.30;99.90;;;;;;5007180;28;20041;-85
2021/10/29 01:14:09;;;;;;;26.63;17.63;;;10.30;99.90;;;;;;5016518;28;20076;-85
2021/10/29 01:16:35;;;;;;;26.35;16.42;;;10.30;99.60;;;;;;5016295;28;20537;-85
2021/10/29 01:19:00;;;;;;;27.65;16.58;;;10.40;99.30;;;;;;5015225;28;20083;-85
2021/10/29 01:21:26;;;;;;;28.63;18.02;;;10.40;99.10;;;;;;5013368;28;20124;-85
2021/10/29 01:23:52;;;;;;;27.20;16.58;;;10.50;98.90;;;;;;5002668;28;20450;-85
2021/10/29 01:26:18;;;;;;;28.80;17.33;;;10.40;99.00;;;;;;5001616;28;20041;-85
2021/10/29 01:28:45;;;;;;;26.25;15.75;;;10.50;98.90;;;;;;4996651;28;20045;-85
2021/10/29 01:31:11;;;;;;;26.65;17.60;;;10.50;98.60;;;;;;4995516;28;20081;-85
2021/10/29 01:33:37;;;;;;;28.27;17.20;;;10.50;98.60;;;;;;5018918;28;20056;-85
2021/10/29 01:36:04;;;;;;;28.20;17.50;;;10.50;98.50;;;;;;5006802;28;20037;-85
2021/10/29 01:38:35;;;;;;;27.85;17.38;;;10.50;98.40;;;;;;5010726;28;20045;-85
2021/10/29 01:41:02;;;;;;;28.25;16.55;;;10.60;98.40;;;;;;5005040;28;20124;-85
2021/10/29 01:43:28;;;;;;;26.17;16.98;;;10.50;98.20;;;;;;4998575;28;20509;-85
2021/10/29 01:45:55;;;;;;;28.20;17.73;;;10.50;98.50;;;;;;5002171;28;20064;-84
2021/10/29 01:48:22;;;;;;;25.08;16.55;;;10.50;98.30;;;;;;4998667;28;20558;-85
2021/10/29 01:50:48;;;;;;;29.25;16.48;;;10.50;98.40;;;;;;4997833;28;20092;-85
2021/10/29 01:53:14;;;;;;;26.27;16.65;;;10.40;98.50;;;;;;4994468;28;20126;-85
2021/10/29 01:55:40;;;;;;;28.17;17.63;;;10.40;98.70;;;;;;5014600;28;20033;-85
2021/10/29 01:58:05;;;;;;;31.23;18.40;;;10.50;98.30;;;;;;5008425;28;20522;-85
2021/10/29 02:00:31;;;;;;;26.95;16.35;;;10.40;98.50;;;;;;5004695;28;20037;-85
2021/10/29 02:02:56;;;;;;;27.08;17.30;;;10.40;98.70;;;;;;4999845;28;20042;-85
2021/10/29 02:05:28;;;;;;;27.42;16.45;;;10.40;98.60;;;;;;5005884;28;20394;-85
2021/10/29 02:07:53;;;;;;;29.85;17.58;;;10.30;98.80;;;;;;5001592;28;20029;-84
2021/10/29 02:10:19;;;;;;;27.42;16.75;;;10.30;99.00;;;;;;5000110;28;20042;-85
2021/10/29 02:12:44;;;;;;;27.13;16.48;;;10.30;98.80;;;;;;5032619;28;20470;-85
2021/10/29 02:15:10;;;;;;;28.85;17.90;;;10.30;99.10;;;;;;5007316;28;20128;-85
2021/10/29 02:17:36;;;;;;;28.05;16.42;;;10.30;98.90;;;;;;5000404;28;20090;-85
2021/10/29 02:20:03;;;;;;;25.88;16.92;;;10.20;99.10;;;;;;4992415;28;20061;-85
2021/10/29 02:22:29;;;;;;;27.73;17.35;;;10.20;99.30;;;;;;4988686;28;20554;-85
2021/10/29 02:24:55;;;;;;;27.75;17.00;;;10.20;99.20;;;;;;5012297;28;20124;-85
2021/10/29 02:27:21;;;;;;;29.17;17.58;;;10.10;99.10;;;;;;5012503;28;20137;-84
2021/10/29 02:29:46;;;;;;;28.00;17.77;;;10.10;99.30;;;;;;5010877;28;20116;-84
2021/10/29 02:32:12;;;;;;;28.75;17.70;;;10.10;99.20;;;;;;5006863;28;20186;-85
2021/10/29 02:34:38;;;;;;;29.08;17.25;;;10.10;99.30;;;;;;5005131;28;20470;-85
2021/10/29 02:37:03;;;;;;;29.23;16.35;;;10.10;99.20;;;;;;4994180;28;20045;-85
2021/10/29 02:39:29;;;;;;;24.27;16.33;;;10.10;99.20;;;;;;5006852;28;20033;-85
2021/10/29 02:41:55;;;;;;;28.50;17.30;;;10.20;99.10;;;;;;5013421;28;20033;-85
2021/10/29 02:44:21;;;;;;;27.48;17.13;;;10.10;99.20;;;;;;5013930;28;20505;-85
2021/10/29 02:46:47;;;;;;;27.08;16.48;;;10.10;99.10;;;;;;4997642;28;20041;-85
2021/10/29 02:49:13;;;;;;;23.70;16.70;;;10.20;99.10;;;;;;5003983;28;20416;-85
2021/10/29 02:51:38;;;;;;;25.05;15.35;;;10.20;99.10;;;;;;4996523;28;20040;-85
2021/10/29 02:54:04;;;;;;;26.23;16.65;;;10.20;99.00;;;;;;5013991;28;20037;-85
2021/10/29 02:56:29;;;;;;;29.15;17.27;;;10.10;99.00;;;;;;5009299;28;20037;-85
2021/10/29 02:58:55;;;;;;;31.80;16.60;;;10.10;99.10;;;;;;5019182;28;20077;-85
2021/10/29 03:01:21;;;;;;;26.17;16.92;;;10.10;99.10;;;;;;5010821;28;20037;-85
2021/10/29 03:03:46;;;;;;;27.80;16.20;;;10.10;99.20;;;;;;5012687;28;20359;-85
2021/10/29 03:06:12;;;;;;;26.88;15.57;;;10.10;99.30;;;;;;5005565;28;20464;-84
2021/10/29 03:08:38;;;;;;;29.85;16.40;;;10.10;99.40;;;;;;5002775;28;20038;-84
2021/10/29 03:11:03;;;;;;;26.35;16.15;;;10.10;99.40;;;;;;5009792;28;20040;-84
2021/10/29 03:13:29;;;;;;;27.00;17.05;;;10.10;99.20;;;;;;4999301;28;20044;-84
2021/10/29 03:15:55;;;;;;;25.77;16.33;;;10.20;99.10;;;;;;5029256;28;20065;-84
2021/10/29 03:18:21;;;;;;;32.80;16.88;;;10.10;99.20;;;;;;5003248;28;20132;-84
2021/10/29 03:20:48;;;;;;;26.67;16.85;;;10.10;99.10;;;;;;5002572;28;20036;-85
2021/10/29 03:23:15;;;;;;;26.23;15.63;;;10.10;99.10;;;;;;5002917;28;20068;-85
2021/10/29 03:25:42;;;;;;;26.67;16.40;;;10.10;99.10;;;;;;5005360;28;20045;-85
2021/10/29 03:28:08;;;;;;;28.23;16.98;;;10.10;99.20;;;;;;4994942;28;20037;-85
2021/10/29 03:30:34;;;;;;;24.83;16.00;;;10.10;99.20;;;;;;5027736;28;20111;-85
2021/10/29 03:33:00;;;;;;;23.58;15.88;;;10.10;99.10;;;;;;4987504;28;20260;-85
2021/10/29 03:35:26;;;;;;;25.73;16.08;;;10.20;99.10;;;;;;5011961;28;20110;-85
2021/10/29 03:38:19;;;;;;;27.90;16.63;;;10.20;99.30;;;;;;5008051;28;20052;-85
2021/10/29 03:40:57;;;;;;;26.83;16.10;;;10.20;99.30;;;;;;4991737;28;20037;-85
2021/10/29 03:46:01;;;;;;;25.85;16.40;;;10.10;99.40;;;;;;5015094;28;20044;-85
2021/10/29 03:51:03;;;;;;;21.88;15.73;;;10.20;99.40;;;;;;4998733;28;20083;-85
2021/10/29 03:53:38;;;;;;;27.40;16.38;;;10.20;99.40;;;;;;4991634;28;20103;-85
2021/10/29 03:56:05;;;;;;;28.02;16.95;;;10.20;99.40;;;;;;4990970;28;20042;-85
2021/10/29 03:58:31;;;;;;;27.10;16.67;;;10.20;99.40;;;;;;5003926;28;20045;-84
2021/10/29 04:00:57;;;;;;;27.75;16.92;;;10.10;99.50;;;;;;4991392;28;20045;-84
2021/10/29 04:03:22;;;;;;;24.40;16.25;;;10.20;99.50;;;;;;4996318;28;20140;-85
2021/10/29 04:05:48;;;;;;;26.92;16.10;;;10.20;99.40;;;;;;5010706;28;20117;-84
2021/10/29 04:08:14;;;;;;;25.30;16.67;;;10.10;99.60;;;;;;5004789;28;20128;-84
2021/10/29 04:10:42;;;;;;;26.02;16.58;;;10.10;99.60;;;;;;5003967;28;20050;-84
2021/10/29 04:13:10;;;;;;;28.42;15.98;;;10.10;99.60;;;;;;5005612;28;20053;-85
2021/10/29 04:15:41;;;;;;;26.75;15.68;;;10.20;99.40;;;;;;4993107;28;20034;-85
2021/10/29 04:18:08;;;;;;;25.55;16.08;;;10.10;99.50;;;;;;5015174;28;20084;-85
2021/10/29 04:20:34;;;;;;;25.15;16.48;;;10.10;99.60;;;;;;5032476;28;20041;-84
2021/10/29 04:22:59;;;;;;;26.20;16.38;;;10.10;99.50;;;;;;5007808;28;20499;-85
2021/10/29 04:25:25;;;;;;;27.85;16.48;;;10.10;99.60;;;;;;5020473;28;20045;-85
2021/10/29 04:28:04;;;;;;;27.80;15.75;;;10.00;99.80;;;;;;5006283;28;20053;-85
2021/10/29 04:30:30;;;;;;;25.98;15.45;;;10.00;99.90;;;;;;4994281;28;20091;-85
2021/10/29 04:32:57;;;;;;;26.38;16.35;;;10.00;99.90;;;;;;5010557;28;20041;-85
2021/10/29 04:35:26;;;;;;;25.77;16.23;;;10.00;99.90;;;;;;5015016;28;20042;-85
2021/10/29 04:37:52;;;;;;;26.00;16.02;;;10.00;99.90;;;;;;5013422;28;20080;-85
2021/10/29 04:40:18;;;;;;;23.73;14.85;;;10.10;99.70;;;;;;5008617;28;20456;-85
2021/10/29 04:42:44;;;;;;;24.05;15.63;;;10.10;99.80;;;;;;4995433;28;20049;-85
2021/10/29 04:45:10;;;;;;;23.48;14.88;;;10.10;99.60;;;;;;5015510;28;20037;-85
2021/10/29 04:47:35;;;;;;;23.75;14.95;;;10.10;99.80;;;;;;5013023;28;20049;-85
2021/10/29 04:50:03;;;;;;;22.77;14.95;;;10.10;99.70;;;;;;5007240;28;20037;-84
2021/10/29 04:52:29;;;;;;;28.13;14.45;;;10.30;99.40;;;;;;5014558;28;20037;-84
2021/10/29 04:54:54;;;;;;;26.85;14.73;;;10.30;99.30;;;;;;4991466;28;20100;-85
2021/10/29 04:57:20;;;;;;;24.10;13.60;;;10.30;99.20;;;;;;4997662;28;20061;-85
2021/10/29 04:59:45;;;;;;;24.60;14.48;;;10.30;99.20;;;;;;5009698;28;20037;-85
2021/10/29 05:02:12;;;;;;;23.98;13.80;;;10.30;99.10;;;;;;5005427;28;20068;-85
2021/10/29 05:04:38;;;;;;;22.67;14.18;;;10.40;99.10;;;;;;5010980;28;20546;-84
2021/10/29 05:07:04;;;;;;;22.98;14.30;;;10.50;98.70;;;;;;5013716;28;20076;-84
2021/10/29 05:09:29;;;;;;;23.55;14.35;;;10.50;98.80;;;;;;4984955;28;20124;-85
2021/10/29 05:11:55;;;;;;;22.25;13.52;;;10.50;98.70;;;;;;5008614;28;20040;-85
2021/10/29 05:14:21;;;;;;;25.15;14.20;;;10.50;98.80;;;;;;5009408;28;20046;-85
2021/10/29 05:16:46;;;;;;;21.25;14.02;;;10.50;98.50;;;;;;4997695;28;20100;-85
2021/10/29 05:19:12;;;;;;;21.05;13.25;;;10.50;98.60;;;;;;4997909;28;20029;-85
2021/10/29 05:21:37;;;;;;;23.95;13.98;;;10.50;98.60;;;;;;5023246;28;20029;-85
2021/10/29 05:24:03;;;;;;;24.48;13.80;;;10.60;98.70;;;;;;5024227;28;20080;-85
2021/10/29 05:26:29;;;;;;;21.23;13.30;;;10.60;98.20;;;;;;5001658;28;20044;-85
2021/10/29 05:28:54;;;;;;;17.80;11.77;;;10.70;98.00;;;;;;5012347;28;20140;-84
2021/10/29 05:31:20;;;;;;;20.95;12.60;;;10.70;98.10;;;;;;5014523;28;20487;-84
2021/10/29 05:33:45;;;;;;;18.67;11.35;;;10.70;98.20;;;;;;5013977;28;20058;-85
2021/10/29 05:36:11;;;;;;;22.60;11.98;;;10.70;98.10;;;;;;5010429;28;20041;-85
2021/10/29 05:38:37;;;;;;;20.58;12.70;;;10.70;97.90;;;;;;4990345;28;20429;-85
2021/10/29 05:41:03;;;;;;;20.63;11.98;;;10.80;97.80;;;;;;4989115;28;20075;-85
2021/10/29 05:43:29;;;;;;;21.05;12.85;;;10.80;97.70;;;;;;5009539;28;20087;-85
2021/10/29 05:45:54;;;;;;;20.40;12.50;;;10.70;97.80;;;;;;5009614;28;20404;-85
2021/10/29 05:48:20;;;;;;;22.35;12.32;;;10.70;97.80;;;;;;4996841;28;20048;-85
2021/10/29 05:50:50;;;;;;;17.23;11.43;;;10.80;97.80;;;;;;5011307;28;20041;-85
2021/10/29 05:55:54;;;;;;;19.05;11.82;;;10.80;98.00;;;;;;5006183;28;20041;-84
2021/10/29 05:58:19;;;;;;;18.23;11.60;;;10.80;97.90;;;;;;5003825;28;20034;-85
2021/10/29 06:00:45;;;;;;;19.27;11.93;;;10.80;97.60;;;;;;5009568;28;20065;-85
2021/10/29 06:03:11;;;;;;;17.48;11.65;;;10.80;97.90;;;;;;4992556;28;20042;-85
2021/10/29 06:05:36;;;;;;;19.38;11.38;;;10.80;97.70;;;;;;5020989;28;20036;-85
2021/10/29 06:08:02;;;;;;;22.50;12.05;;;10.80;97.70;;;;;;4999557;28;20045;-85
2021/10/29 06:10:28;;;;;;;18.48;11.18;;;10.90;97.50;;;;;;5007674;28;20052;-85
2021/10/29 06:12:53;;;;;;;17.05;11.35;;;10.90;97.30;;;;;;5011361;28;20041;-85
2021/10/29 06:15:20;;;;;;;18.50;11.55;;;11.00;97.30;;;;;;5006984;28;20041;-85
2021/10/29 06:17:46;;;;;;;19.83;12.30;;;10.90;97.30;;;;;;5012566;28;20076;-85
2021/10/29 06:20:13;;;;;;;18.25;11.18;;;10.90;97.20;;;;;;5005832;28;20081;-85
2021/10/29 06:22:44;;;;;;;17.63;11.20;;;11.00;97.00;;;;;;5002912;28;20030;-85
2021/10/29 06:25:14;;;;;;;19.50;11.95;;;11.00;96.90;;;;;;4995683;28;20554;-83
2021/10/29 06:30:07;;;;;;;17.95;12.07;;;11.00;97.10;;;;;;5018674;28;20465;-86
2021/10/29 06:32:32;;;;;;;19.08;11.38;;;11.30;96.90;;;;;;5018383;28;20099;-86
2021/10/29 06:34:58;;;;;;;18.08;11.57;;;11.00;97.00;;;;;;5015368;28;20037;-85
2021/10/29 06:37:25;;;;;;;18.83;11.90;;;11.00;97.10;;;;;;5005420;28;20116;-86
2021/10/29 06:39:51;;;;;;;20.75;11.45;;;11.00;97.20;;;;;;5011832;28;20057;-86
2021/10/29 06:42:30;;;;;;;21.10;11.55;;;11.00;97.00;;;;;;5007954;28;20038;-86
2021/10/29 07:00:54;;;;;;;15.63;11.43;;;11.00;97.20;;;;;;5000302;28;20034;-85
2021/10/29 07:42:31;;;;;;;19.20;10.48;;;11.60;95.90;;;;;;5027121;28;20045;-88
2021/10/29 07:44:57;;;;;;;18.52;10.15;;;11.60;96.10;;;;;;4996161;28;20125;-86
2021/10/29 07:47:22;;;;;;;17.85;10.20;;;11.70;95.60;;;;;;4995772;28;20204;-86
2021/10/29 07:49:48;;;;;;;19.30;10.10;;;11.80;95.20;;;;;;4996017;28;20495;-87
2021/10/29 07:52:17;;;;;;;17.10;10.70;;;11.80;95.40;;;;;;5010474;28;20491;-85
2021/10/29 07:54:45;;;;;;;15.15;9.07;;;11.90;95.30;;;;;;4996301;28;20041;-85
2021/10/29 07:57:18;;;;;;;18.33;10.48;;;11.90;95.20;;;;;;4992318;28;20045;-88
2021/10/29 07:59:46;;;;;;;16.67;10.27;;;11.90;95.20;;;;;;4995569;28;20044;-87
2021/10/29 08:02:17;;;;;;;16.63;10.18;;;12.10;94.70;;;;;;5011551;28;20067;-86
2021/10/29 08:04:54;;;;;;;16.65;9.73;;;12.10;94.40;;;;;;5015648;28;20099;-85
2021/10/29 08:07:27;;;;;;;14.60;9.50;;;12.10;94.40;;;;;;5010527;28;20045;-90
2021/10/29 08:09:55;;;;;;;17.13;9.93;;;12.20;94.60;;;;;;5006644;28;20482;-88
2021/10/29 08:12:24;;;;;;;16.75;9.70;;;12.20;94.40;;;;;;4993086;28;20029;-86
2021/10/29 08:14:52;;;;;;;17.25;9.82;;;12.10;94.20;;;;;;4986641;28;20037;-86
2021/10/29 08:17:20;;;;;;;17.20;10.27;;;12.30;94.50;;;;;;4984245;28;20523;-86
2021/10/29 08:19:47;;;;;;;15.35;10.23;;;12.30;94.60;;;;;;4987237;28;20038;-86
2021/10/29 08:22:15;;;;;;;12.95;9.13;;;12.30;94.60;;;;;;4985849;28;20124;-86
2021/10/29 08:24:45;;;;;;;15.80;10.82;;;12.30;94.30;;;;;;5000879;28;20137;-86
2021/10/29 08:27:16;;;;;;;17.23;10.02;;;12.40;94.50;;;;;;5002454;28;20579;-86
2021/10/29 08:29:41;;;;;;;17.25;10.38;;;12.40;94.10;;;;;;4987328;28;20041;-86
2021/10/29 08:32:08;;;;;;;16.17;10.00;;;12.40;94.30;;;;;;4989912;28;20040;-86
2021/10/29 08:34:35;;;;;;;16.17;9.20;;;12.50;93.80;;;;;;4986427;28;20041;-86
2021/10/29 08:37:04;;;;;;;17.15;9.77;;;12.60;94.10;;;;;;4994611;22;20033;-51
2021/10/29 08:39:35;;;;;;;16.52;9.88;;;12.60;93.70;;;;;;5046872;28;20048;-49
2021/10/29 08:42:01;;;;;;;16.38;9.98;;;12.60;93.80;;;;;;5047452;28;20037;-56
2021/10/29 08:44:31;;;;;;;15.63;10.20;;;12.70;93.60;;;;;;5027212;28;20034;-55
2021/10/29 08:47:01;;;;;;;15.68;9.68;;;12.70;93.90;;;;;;5043363;28;20424;-55
2021/10/29 08:49:32;;;;;;;17.80;10.00;;;12.80;93.90;;;;;;5046759;28;20581;-55
2021/10/29 08:52:00;;;;;;;15.02;9.65;;;12.80;94.00;;;;;;5028286;28;20726;-55
2021/10/29 08:54:26;;;;;;;12.70;8.85;;;12.80;93.80;;;;;;5043346;28;20040;-51
2021/10/29 08:56:52;;;;;;;13.65;9.20;;;12.90;93.30;;;;;;5042402;28;20175;-54
2021/10/29 08:59:31;;;;;;;18.10;9.60;;;13.10;92.60;;;;;;5044551;28;20112;-54
2021/10/29 09:02:26;;;;;;;14.95;8.95;;;13.10;92.90;;;;;;5043285;28;20037;-54
2021/10/29 09:08:12;;;;;;;14.48;9.23;;;13.10;93.40;;;;;;5013960;28;20456;-52
2021/10/29 09:11:04;;;;;;;17.38;9.48;;;13.20;93.00;;;;;;5046766;28;20053;-52
2021/10/29 09:33:12;;;;;;;14.55;9.50;;;13.60;92.00;;;;;;5047981;28;20045;-54
2021/10/29 09:35:40;;;;;;;18.17;9.45;;;13.70;91.90;;;;;;5046545;28;20045;-55
2021/10/29 09:38:10;;;;;;;12.40;9.02;;;13.70;91.70;;;;;;5048177;28;20556;-50
2021/10/29 09:40:39;;;;;;;20.38;8.55;;;13.80;91.80;;;;;;5035199;28;20056;-51
2021/10/29 09:43:14;;;;;;;13.45;9.18;;;13.90;91.30;;;;;;5032254;28;20060;-52
2021/10/29 09:45:48;;;;;;;12.85;8.80;;;13.90;91.30;;;;;;5042652;28;20393;-55
2021/10/29 09:48:18;;;;;;;15.48;9.07;;;13.90;91.30;;;;;;5048897;28;20116;-51
2021/10/29 09:50:49;;;;;;;12.93;8.80;;;14.00;91.50;;;;;;5036587;28;20328;-52
2021/10/29 09:53:49;;;;;;;16.63;8.70;;;14.00;90.80;;;;;;5052147;28;20047;-53
2021/10/29 09:58:50;;;;;;;11.93;8.68;;;14.10;91.10;;;;;;5052428;28;20508;-52
2021/10/29 10:01:16;;;;;;;12.70;7.93;;;14.10;90.80;;;;;;5048389;28;20040;-51
2021/10/29 10:03:44;;;;;;;14.30;8.73;;;14.20;90.40;;;;;;5032016;28;20045;-53
2021/10/29 10:06:10;;;;;;;15.45;9.07;;;14.30;89.90;;;;;;5052481;28;20447;-51
2021/10/29 10:08:38;;;;;;;17.48;8.80;;;14.30;90.20;;;;;;5052306;28;20044;-52
2021/10/29 10:11:05;;;;;;;15.60;8.32;;;14.40;90.10;;;;;;5047267;28;20045;-51
2021/10/29 10:13:32;;;;;;;12.52;8.00;;;14.50;89.00;;;;;;5042004;28;20072;-53
2021/10/29 10:16:02;;;;;;;14.80;8.75;;;14.50;89.50;;;;;;5052431;28;20041;-53
2021/10/29 10:46:14;;;;;;;12.32;6.72;;;15.30;85.10;;;;;;5012351;28;20562;-53
2021/10/29 10:48:49;;;;;;;12.25;7.10;;;15.30;85.10;;;;;;4993753;28;20077;-53
2021/10/29 10:51:37;;;;;;;14.10;6.95;;;15.30;85.90;;;;;;4999367;28;20111;-52
2021/10/29 10:54:06;;;;;;;10.38;6.65;;;15.40;86.90;;;;;;4992748;28;20053;-54
2021/10/29 11:03:12;;;;;;;9.75;6.20;;;15.70;81.70;;;;;;4995951;28;20058;-52
2021/10/29 11:14:35;;;;;;;9.95;6.10;;;15.80;80.70;;;;;;5005602;28;20061;-52
2021/10/29 11:17:01;;;;;;;10.60;6.32;;;15.90;79.20;;;;;;4988315;28;20038;-54
2021/10/29 11:19:47;;;;;;;9.40;6.07;;;15.90;82.30;;;;;;4989260;28;20054;-56
2021/10/29 11:22:13;;;;;;;9.90;6.07;;;15.90;81.40;;;;;;4989111;28;20080;-55
2021/10/29 11:24:40;;;;;;;12.77;6.28;;;15.90;81.80;;;;;;4990624;28;20446;-55
2021/10/29 11:27:12;;;;;;;11.38;5.57;;;16.00;80.90;;;;;;4988118;28;20043;-55
2021/10/29 11:29:46;;;;;;;9.95;6.03;;;15.90;79.90;;;;;;4986583;28;20038;-55
2021/10/29 11:32:11;;;;;;;13.07;6.18;;;16.00;78.70;;;;;;4984987;28;20495;-55
2021/10/29 11:34:37;;;;;;;12.63;6.30;;;16.10;79.30;;;;;;4984931;28;20117;-55
2021/10/29 11:37:03;;;;;;;11.30;5.78;;;16.10;79.00;;;;;;4987705;28;20104;-56
2021/10/29 11:39:34;;;;;;;12.60;6.72;;;16.10;79.50;;;;;;4979594;28;20407;-55
2021/10/29 11:42:00;;;;;;;10.80;5.90;;;16.10;79.50;;;;;;4981767;28;20049;-55
2021/10/29 11:44:25;;;;;;;11.00;6.55;;;16.10;79.20;;;;;;4985096;28;20402;-55
2021/10/29 11:46:56;;;;;;;9.90;6.40;;;16.20;77.70;;;;;;4991310;28;20403;-56
2021/10/29 11:49:25;;;;;;;14.20;6.45;;;16.10;78.70;;;;;;4990673;28;20050;-56
2021/10/29 11:51:54;;;;;;;11.25;5.80;;;16.10;79.50;;;;;;4990651;28;20494;-56
2021/10/29 11:54:32;;;;;;;10.30;5.80;;;16.10;80.50;;;;;;4992851;28;20061;-56
2021/10/29 12:07:24;;;;;;;9.95;5.97;;;16.30;79.00;;;;;;4990470;28;20165;-56
2021/10/29 12:09:52;;;;;;;10.32;5.90;;;16.40;76.30;;;;;;4985719;28;20042;-55
2021/10/29 12:12:22;;;;;;;8.90;5.32;;;16.40;76.50;;;;;;4990620;28;20038;-55
2021/10/29 12:14:50;;;;;;;11.10;6.03;;;16.30;78.10;;;;;;4975457;28;20038;-56
2021/10/29 12:17:25;;;;;;;10.88;6.05;;;16.30;77.50;;;;;;4991276;28;20126;-56
2021/10/29 12:19:55;;;;;;;8.85;5.40;;;16.40;77.60;;;;;;4994449;28;20046;-55
2021/10/29 12:25:16;;;;;;;9.33;5.70;;;16.40;77.40;;;;;;4988937;28;20451;-56
2021/10/29 12:27:48;;;;;;;12.57;5.60;;;16.40;76.80;;;;;;4985828;28;20042;-56
2021/10/29 12:30:31;;;;;;;;;;;16.40;77.60;;;;;;4989505;28;20746;-56
2021/10/29 13:04:02;;;;;;;8.23;5.10;;;16.40;75.50;;;;;;4990203;28;20042;-56
2021/10/29 13:06:35;;;;;;;10.85;5.60;;;16.40;75.50;;;;;;4988754;28;20549;-56
2021/10/29 13:09:11;;;;;;;13.23;4.88;;;16.30;75.50;;;;;;4985838;28;20490;-57
2021/10/29 13:11:41;;;;;;;10.00;5.25;;;16.20;75.60;;;;;;4995076;28;20034;-54
2021/10/29 13:14:07;;;;;;;7.28;4.90;;;16.30;75.80;;;;;;4991518;28;20430;-57
2021/10/29 13:16:34;;;;;;;9.15;4.75;;;16.20;75.60;;;;;;4993117;28;20092;-57
2021/10/29 13:19:24;;;;;;;9.10;4.78;;;16.20;75.80;;;;;;5000183;28;20052;-56
2021/10/29 13:22:42;;;;;;;9.05;4.97;;;16.20;76.80;;;;;;4991669;28;20059;-56
2021/10/29 13:36:29;;;;;;;10.35;4.15;;;16.20;77.20;;;;;;5000841;28;20650;-55
2021/10/29 13:50:13;;;;;;;8.23;4.35;;;16.20;77.70;;;;;;4990098;28;20408;-54
2021/10/29 13:57:47;;;;;;;11.23;4.38;;;16.70;76.10;;;;;;4968299;28;20057;-56
2021/10/29 14:30:14;;;;;;;12.88;4.10;;;17.00;73.00;;;;;;4988810;28;20045;-56
2021/10/29 14:32:47;;;;;;;12.32;4.00;;;16.90;72.70;;;;;;4992612;28;20038;-56
2021/10/29 14:35:17;;;;;;;8.20;4.28;;;16.90;72.60;;;;;;4990377;28;20038;-56
2021/10/29 14:38:00;;;;;;;8.68;4.13;;;16.90;73.10;;;;;;4988300;28;20042;-56
2021/10/29 14:40:31;;;;;;;8.75;4.63;;;16.80;73.50;;;;;;4992421;28;20046;-55
2021/10/29 14:45:37;;;;;;;9.85;4.68;;;16.80;72.80;;;;;;4987327;28;20125;-55
2021/10/29 14:48:18;;;;;;;8.00;4.30;;;16.70;73.40;;;;;;4987355;28;20047;-56
2021/10/29 15:04:07;;;;;;;10.98;4.68;;;16.50;74.10;;;;;;4992303;28;20034;-56
2021/10/29 15:31:21;;;;;;;8.32;4.40;;;16.10;76.20;;;;;;4982139;28;20939;-55
2021/10/29 15:41:06;;;;;;;10.63;3.95;;;16.00;76.20;;;;;;4985518;28;20122;-55
2021/10/29 15:42:20;;;;;;;6.70;4.38;;;15.90;76.80;;;;;;4984511;28;20421;-55
2021/10/29 15:44:52;;;;;;;8.57;4.68;;;15.90;77.10;;;;;;4987639;28;20243;-56
2021/10/29 15:47:34;;;;;;;6.18;4.07;;;15.80;77.60;;;;;;4988134;28;20157;-55
2021/10/29 15:50:06;;;;;;;8.18;4.00;;;15.70;77.70;;;;;;4986253;28;20042;-53
2021/10/29 15:52:32;;;;;;;;;;;15.80;77.40;;;;;;4988187;28;20030;-53
2021/10/29 15:55:03;;;;;;;10.07;4.60;;;15.70;77.70;;;;;;4990737;28;19917;-53
2021/10/29 15:57:32;;;;;;;8.95;4.68;;;15.70;78.30;;;;;;4994482;28;20049;-51
2021/10/29 16:00:05;;;;;;;10.15;4.38;;;15.70;78.50;;;;;;4995593;28;20407;-51
2021/10/29 16:18:45;;;;;;;7.70;4.55;;;15.60;78.50;;;;;;5006431;28;20104;-53
2021/10/29 16:21:11;;;;;;;10.27;4.90;;;15.50;78.50;;;;;;4996104;28;20495;-55
2021/10/29 16:23:36;;;;;;;8.43;4.38;;;15.50;78.90;;;;;;4988107;28;20319;-53
2021/10/29 16:26:09;;;;;;;7.88;4.53;;;15.50;79.20;;;;;;5000249;28;20043;-52
2021/10/29 16:28:37;;;;;;;7.60;4.13;;;15.60;79.00;;;;;;4990039;28;20046;-54
2021/10/29 16:31:03;;;;;;;10.18;4.78;;;15.60;78.70;;;;;;4997265;28;20516;-53
2021/10/29 16:33:32;;;;;;;8.10;4.90;;;15.60;79.10;;;;;;4999329;28;20034;-53
2021/10/29 16:35:59;;;;;;;8.77;4.60;;;15.50;79.50;;;;;;4996076;28;20180;-53
2021/10/29 16:38:25;;;;;;;7.40;4.30;;;15.50;79.20;;;;;;4989910;28;20073;-51
2021/10/29 16:40:51;;;;;;;8.32;4.75;;;15.50;79.10;;;;;;4995595;28;20046;-52
2021/10/29 16:43:17;;;;;;;11.57;4.95;;;15.50;80.00;;;;;;4994831;28;20050;-50
2021/10/29 16:45:47;;;;;;;9.15;4.60;;;15.50;80.00;;;;;;4991461;28;20057;-55
2021/10/29 16:48:19;;;;;;;8.25;5.10;;;15.40;80.40;;;;;;4992907;28;20100;-53
2021/10/29 16:50:45;;;;;;;9.68;4.72;;;15.40;80.80;;;;;;4979799;28;20046;-52
2021/10/29 16:53:12;;;;;;;10.65;5.03;;;15.40;81.00;;;;;;4996684;28;20049;-51
2021/10/29 16:55:40;;;;;;;8.75;4.90;;;15.30;81.10;;;;;;4995229;28;20141;-53
2021/10/29 16:58:06;;;;;;;11.80;4.97;;;15.30;81.40;;;;;;4979201;28;20038;-49
2021/10/29 17:00:32;;;;;;;7.78;4.72;;;15.30;81.40;;;;;;4991935;28;20437;-53
2021/10/29 17:02:58;;;;;;;7.55;4.57;;;15.30;81.30;;;;;;4993114;28;20323;-50
2021/10/29 17:05:24;;;;;;;9.55;4.70;;;15.30;81.50;;;;;;4998548;28;20045;-53
2021/10/29 17:07:50;;;;;;;9.02;4.80;;;15.30;82.10;;;;;;4993647;28;20466;-53
2021/10/29 17:10:18;;;;;;;8.50;4.63;;;15.30;81.40;;;;;;4991889;28;20042;-50
2021/10/29 17:12:44;;;;;;;11.02;5.10;;;15.30;81.60;;;;;;4990666;28;20408;-56
2021/10/29 17:18:23;;;;;;;8.30;4.97;;;15.40;81.40;;;;;;4989566;22;20509;-84
2021/10/29 17:20:48;;;;;;;10.25;4.55;;;15.40;81.40;;;;;;4941769;28;20082;-85
2021/10/29 17:23:14;;;;;;;9.73;4.45;;;15.40;81.50;;;;;;4953017;28;20039;-85
2021/10/29 17:25:40;;;;;;;7.75;4.60;;;15.40;81.50;;;;;;4936292;28;20429;-85
2021/10/29 17:28:05;;;;;;;8.60;4.82;;;15.40;82.20;;;;;;4949105;28;20516;-85
2021/10/29 17:30:31;;;;;;;9.15;4.68;;;15.40;82.80;;;;;;4953916;28;20050;-86
2021/10/29 17:32:58;;;;;;;7.97;4.68;;;15.30;83.10;;;;;;4956359;28;20031;-85
2021/10/29 17:35:24;;;;;;;9.02;4.57;;;15.30;83.30;;;;;;4955150;28;20497;-86
2021/10/29 17:37:49;;;;;;;11.05;4.63;;;15.40;83.60;;;;;;4960831;28;20042;-86
2021/10/29 17:40:16;;;;;;;8.95;4.90;;;15.50;83.00;;;;;;4949101;28;20039;-85
2021/10/29 17:42:42;;;;;;;10.27;4.78;;;15.50;83.30;;;;;;4935706;28;21904;-86